Time;durP1;ratioP1;P1;durP2;ratioP2;P2;SDS_P1;SDS_P2;PMS_P1;PMS_P2;Temp;Humidity;BMP_temperature;BMP_pressure;BME280_temperature;BME280_humidity;BME280_pressure;Samples;Min_cycle;Max_cycle;Signal;HPM_P1;HPM_P2
2023/01/30 00:02:11;;;;;;;0.70;0.70;;;6.10;99.90;;;;;;4976876;28;20048;-91
2023/01/30 00:04:40;;;;;;;0.73;0.73;;;6.10;99.90;;;;;;4981373;28;20889;-92
2023/01/30 00:07:21;;;;;;;0.70;0.70;;;6.20;99.90;;;;;;4977289;28;20056;-92
2023/01/30 00:09:53;;;;;;;0.70;0.70;;;6.20;99.90;;;;;;4976590;28;20044;-94
2023/01/30 00:12:19;;;;;;;0.80;0.80;;;6.20;99.90;;;;;;4968422;28;20066;-88
2023/01/30 00:14:45;;;;;;;0.70;0.70;;;6.20;99.90;;;;;;4974602;28;20044;-90
2023/01/30 00:17:11;;;;;;;0.70;0.70;;;6.30;99.90;;;;;;4973273;28;20535;-91
2023/01/30 00:19:36;;;;;;;0.70;0.70;;;6.30;99.90;;;;;;4955420;28;20045;-91
2023/01/30 00:22:20;;;;;;;;;;;;;;;;;;;;;
2023/01/30 00:24:48;;;;;;;0.70;0.70;;;6.30;99.90;;;;;;4994570;28;20040;-91
2023/01/30 00:27:37;;;;;;;0.70;0.70;;;6.30;99.90;;;;;;4961218;28;20052;-94
2023/01/30 00:30:09;;;;;;;0.70;0.70;;;6.40;99.90;;;;;;4970647;28;20045;-88
2023/01/30 00:32:46;;;;;;;0.70;0.70;;;6.30;99.90;;;;;;4972379;28;20548;-90
2023/01/30 00:35:27;;;;;;;0.70;0.70;;;6.40;99.90;;;;;;4959414;28;20424;-92
2023/01/30 00:38:00;;;;;;;0.70;0.70;;;6.40;99.90;;;;;;4969825;28;20463;-90
2023/01/30 00:40:32;;;;;;;0.70;0.70;;;6.40;99.90;;;;;;4996213;28;20604;-90
2023/01/30 00:48:39;;;;;;;0.80;0.80;;;6.50;99.90;;;;;;4975801;28;20407;-92
2023/01/30 00:51:05;;;;;;;0.70;0.70;;;6.50;99.90;;;;;;4975380;28;20935;-89
2023/01/30 00:53:31;;;;;;;0.70;0.70;;;6.50;99.90;;;;;;4953536;28;20048;-91
2023/01/30 00:56:18;;;;;;;0.70;0.70;;;6.50;99.90;;;;;;4966419;28;20048;-89
2023/01/30 00:58:44;;;;;;;0.70;0.70;;;6.60;99.90;;;;;;4971059;28;20051;-89
2023/01/30 01:01:09;;;;;;;0.70;0.70;;;6.70;99.90;;;;;;4974236;28;20072;-92
2023/01/30 01:03:35;;;;;;;0.70;0.70;;;6.70;99.90;;;;;;4954323;28;20337;-93
2023/01/30 01:06:01;;;;;;;0.70;0.70;;;6.70;99.90;;;;;;4970034;28;20094;-89
2023/01/30 01:08:29;;;;;;;0.70;0.70;;;6.80;99.90;;;;;;4962320;28;20564;-86
2023/01/30 01:10:57;;;;;;;0.70;0.70;;;6.70;99.90;;;;;;4965932;28;20043;-92
2023/01/30 01:13:30;;;;;;;0.70;0.70;;;6.80;99.90;;;;;;4970349;28;20438;-94
2023/01/30 01:16:01;;;;;;;0.70;0.70;;;6.80;99.90;;;;;;4982548;28;20044;-88
2023/01/30 01:18:33;;;;;;;0.70;0.70;;;6.70;99.90;;;;;;4967465;28;20094;-92
2023/01/30 01:21:09;;;;;;;0.70;0.70;;;6.80;99.90;;;;;;4970601;28;20072;-92
2023/01/30 01:23:34;;;;;;;0.70;0.70;;;6.90;99.90;;;;;;4964691;28;20424;-89
2023/01/30 01:26:06;;;;;;;0.60;0.60;;;6.80;99.90;;;;;;4974696;28;20506;-92
2023/01/30 01:28:53;;;;;;;0.70;0.70;;;6.90;99.90;;;;;;4980031;28;20044;-93
2023/01/30 01:31:28;;;;;;;0.70;0.70;;;6.80;99.90;;;;;;4973726;28;20048;-94
2023/01/30 01:33:54;;;;;;;0.70;0.70;;;6.80;99.90;;;;;;4981244;28;20072;-89
2023/01/30 01:36:44;;;;;;;0.70;0.70;;;6.70;99.90;;;;;;4979273;28;20151;-94
2023/01/30 01:43:25;;;;;;;0.80;0.80;;;6.80;99.90;;;;;;4950872;28;20049;-92
2023/01/30 01:46:35;;;;;;;0.70;0.70;;;6.70;99.90;;;;;;4979405;28;20141;-94
2023/01/30 01:52:42;;;;;;;0.70;0.70;;;6.70;99.90;;;;;;4836190;29;20666;-93
2023/01/30 01:55:45;;;;;;;0.70;0.70;;;6.70;99.90;;;;;;4940461;28;20046;-93
2023/01/30 01:58:16;;;;;;;0.70;0.70;;;6.60;99.90;;;;;;4946273;28;20598;-91
2023/01/30 02:05:00;;;;;;;0.70;0.70;;;6.80;99.90;;;;;;4920917;28;20132;-94
2023/01/30 02:07:13;;;;;;;;;;;6.70;99.90;;;;;;4922683;28;20119;-91
2023/01/30 02:13:12;;;;;;;0.70;0.70;;;6.90;99.90;;;;;;4879951;28;20056;-91
2023/01/30 02:15:38;;;;;;;0.70;0.70;;;6.80;99.90;;;;;;4973832;28;20037;-91
2023/01/30 02:18:19;;;;;;;0.70;0.70;;;7.00;99.90;;;;;;4973940;28;20785;-90
2023/01/30 02:21:19;;;;;;;0.70;0.70;;;6.90;99.90;;;;;;4974595;28;20045;-93
2023/01/30 02:24:03;;;;;;;0.70;0.70;;;7.00;99.90;;;;;;4979239;28;20826;-91
2023/01/30 02:26:57;;;;;;;0.77;0.77;;;7.10;99.90;;;;;;4974809;28;20044;-93
2023/01/30 02:29:58;;;;;;;0.70;0.70;;;7.10;99.90;;;;;;4981723;28;20082;-94
2023/01/30 02:32:41;;;;;;;0.70;0.70;;;7.00;99.90;;;;;;4969547;28;20348;-89
2023/01/30 02:36:06;;;;;;;0.70;0.70;;;7.00;99.90;;;;;;4975865;28;20383;-93
2023/01/30 02:39:24;;;;;;;0.70;0.70;;;7.10;99.90;;;;;;5016041;28;20312;-90
2023/01/30 02:42:21;;;;;;;0.70;0.70;;;7.40;99.90;;;;;;4962339;28;20041;-92
2023/01/30 02:45:11;;;;;;;0.70;0.70;;;7.50;99.90;;;;;;5008249;28;20079;-91
2023/01/30 02:48:02;;;;;;;0.70;0.70;;;7.50;99.90;;;;;;4981056;28;20186;-92
2023/01/30 02:50:38;;;;;;;0.70;0.70;;;7.50;99.90;;;;;;4973824;28;20067;-91
2023/01/30 02:53:17;;;;;;;0.70;0.70;;;7.40;99.90;;;;;;4981687;28;20086;-93
2023/01/30 02:55:52;;;;;;;0.70;0.70;;;7.40;99.90;;;;;;4982118;28;20063;-92
2023/01/30 02:58:43;;;;;;;0.70;0.70;;;7.60;99.90;;;;;;4973556;28;20401;-92
2023/01/30 03:01:43;;;;;;;0.70;0.70;;;7.60;99.90;;;;;;4985709;28;20614;-93
2023/01/30 03:04:37;;;;;;;0.70;0.70;;;7.60;99.90;;;;;;4981065;28;20099;-94
2023/01/30 03:07:21;;;;;;;0.80;0.80;;;7.60;99.90;;;;;;4971757;28;20778;-89
2023/01/30 03:09:58;;;;;;;0.70;0.70;;;7.50;99.90;;;;;;4978306;28;20098;-89
2023/01/30 03:12:47;;;;;;;0.70;0.70;;;7.60;99.90;;;;;;4972260;28;20040;-93
2023/01/30 03:15:32;;;;;;;0.70;0.70;;;7.70;99.90;;;;;;4973087;28;20070;-92
2023/01/30 03:17:59;;;;;;;0.70;0.70;;;7.70;99.90;;;;;;4973804;28;20566;-89
2023/01/30 03:23:12;;;;;;;0.70;0.70;;;7.80;99.90;;;;;;4976706;28;20341;-90
2023/01/30 03:25:42;;;;;;;0.70;0.70;;;7.70;99.90;;;;;;4969556;28;20363;-92
2023/01/30 03:28:09;;;;;;;0.80;0.80;;;7.70;99.90;;;;;;4975660;28;20851;-89
2023/01/30 03:30:35;;;;;;;0.70;0.70;;;7.80;99.90;;;;;;4973767;28;20307;-89
2023/01/30 03:33:10;;;;;;;0.70;0.70;;;7.80;99.90;;;;;;4968191;28;20821;-90
2023/01/30 03:35:40;;;;;;;0.70;0.70;;;7.80;99.90;;;;;;4969209;28;20144;-91
2023/01/30 03:38:06;;;;;;;0.70;0.70;;;7.80;99.90;;;;;;4973361;28;20276;-90
2023/01/30 03:40:42;;;;;;;0.70;0.70;;;7.80;99.90;;;;;;4965611;28;20068;-91
2023/01/30 03:43:08;;;;;;;0.70;0.70;;;7.70;99.90;;;;;;4973904;28;20287;-93
2023/01/30 03:45:33;;;;;;;0.70;0.70;;;7.70;99.90;;;;;;4972502;28;20052;-89
2023/01/30 03:48:08;;;;;;;0.75;0.75;;;7.80;99.90;;;;;;4973210;28;20098;-92
2023/01/30 03:50:52;;;;;;;0.77;0.77;;;7.80;99.90;;;;;;4976052;28;20109;-93
2023/01/30 03:53:18;;;;;;;0.80;0.80;;;7.70;99.90;;;;;;4978897;28;20229;-92
2023/01/30 03:55:59;;;;;;;0.70;0.70;;;7.70;99.90;;;;;;4954535;28;20048;-91
2023/01/30 03:58:27;;;;;;;0.70;0.70;;;7.70;99.90;;;;;;4969330;28;20931;-90
2023/01/30 04:00:58;;;;;;;0.70;0.70;;;7.80;99.90;;;;;;4972086;28;20051;-88
2023/01/30 04:03:24;;;;;;;0.70;0.70;;;7.70;99.90;;;;;;4973148;28;20119;-91
2023/01/30 04:06:01;;;;;;;0.70;0.70;;;7.70;99.90;;;;;;4976156;28;20047;-93
2023/01/30 04:08:33;;;;;;;0.80;0.80;;;7.70;99.90;;;;;;4973335;28;20053;-93
2023/01/30 04:10:59;;;;;;;0.70;0.70;;;7.70;99.90;;;;;;4993361;28;20135;-88
2023/01/30 04:13:25;;;;;;;0.70;0.70;;;7.60;99.90;;;;;;4973458;28;20040;-90
2023/01/30 04:15:51;;;;;;;0.80;0.80;;;7.70;99.90;;;;;;4978263;28;20502;-90
2023/01/30 04:18:29;;;;;;;0.70;0.70;;;7.70;99.90;;;;;;4984285;28;20382;-95
2023/01/30 04:20:55;;;;;;;0.70;0.70;;;7.70;99.90;;;;;;4980024;28;20097;-93
2023/01/30 04:23:20;;;;;;;0.70;0.70;;;7.70;99.90;;;;;;4973521;28;20493;-93
2023/01/30 04:26:07;;;;;;;0.70;0.70;;;7.60;99.90;;;;;;4977197;28;20118;-93
2023/01/30 04:28:41;;;;;;;0.68;0.68;;;7.70;99.90;;;;;;4959440;28;20334;-91
2023/01/30 04:31:07;;;;;;;0.70;0.70;;;7.80;99.90;;;;;;4985994;28;20101;-89
2023/01/30 04:33:49;;;;;;;0.63;0.63;;;7.70;99.90;;;;;;4974708;28;20048;-92
2023/01/30 04:36:30;;;;;;;0.60;0.60;;;7.70;99.90;;;;;;4990016;28;20044;-93
2023/01/30 04:38:58;;;;;;;0.70;0.70;;;7.70;99.90;;;;;;4972351;28;20635;-93
2023/01/30 04:41:33;;;;;;;0.70;0.70;;;7.70;99.90;;;;;;4981475;28;20927;-92
2023/01/30 04:44:07;;;;;;;0.70;0.70;;;7.70;99.90;;;;;;4980833;28;20059;-92
2023/01/30 04:46:45;;;;;;;0.70;0.70;;;7.80;99.90;;;;;;4965918;28;20085;-94
2023/01/30 04:49:43;;;;;;;0.70;0.70;;;7.80;99.90;;;;;;4992061;28;20033;-92
2023/01/30 04:52:16;;;;;;;0.70;0.70;;;7.70;99.90;;;;;;4971287;28;20780;-91
2023/01/30 04:55:07;;;;;;;0.80;0.80;;;7.70;99.90;;;;;;4966581;28;20557;-91
2023/01/30 04:57:41;;;;;;;0.60;0.60;;;7.70;99.90;;;;;;4959043;28;20106;-92
2023/01/30 05:00:16;;;;;;;0.70;0.70;;;7.70;99.90;;;;;;4964606;28;20040;-93
2023/01/30 05:03:06;;;;;;;0.70;0.70;;;7.70;99.90;;;;;;5000885;28;20063;-95
2023/01/30 05:05:34;;;;;;;0.70;0.70;;;7.70;99.90;;;;;;4957118;28;20490;-93
2023/01/30 05:08:15;;;;;;;0.70;0.70;;;7.60;99.90;;;;;;4979310;28;20221;-91
2023/01/30 05:10:49;;;;;;;0.70;0.70;;;7.60;99.90;;;;;;4990494;28;20525;-91
2023/01/30 05:13:24;;;;;;;0.70;0.70;;;7.50;99.90;;;;;;4981111;28;20055;-93
2023/01/30 05:15:58;;;;;;;0.70;0.70;;;7.40;99.90;;;;;;4984203;28;20401;-94
2023/01/30 05:18:24;;;;;;;0.70;0.70;;;7.40;99.90;;;;;;4985992;28;20123;-92
2023/01/30 05:21:17;;;;;;;0.70;0.70;;;7.30;99.90;;;;;;4986540;28;20870;-96
2023/01/30 05:23:53;;;;;;;0.70;0.70;;;7.40;99.90;;;;;;4982881;28;20886;-93
2023/01/30 05:26:22;;;;;;;0.70;0.70;;;7.40;99.90;;;;;;4960762;28;20559;-94
2023/01/30 05:29:01;;;;;;;0.70;0.70;;;7.40;99.90;;;;;;4988661;28;20814;-92
2023/01/30 05:34:34;;;;;;;0.70;0.70;;;7.40;99.90;;;;;;5011816;28;20127;-92
2023/01/30 05:37:00;;;;;;;0.70;0.70;;;7.30;99.90;;;;;;4990769;28;20045;-94
2023/01/30 05:39:43;;;;;;;0.68;0.68;;;7.40;99.90;;;;;;4973229;28;20041;-93
2023/01/30 05:42:12;;;;;;;0.70;0.70;;;7.30;99.90;;;;;;5006454;28;20071;-92
2023/01/30 05:44:57;;;;;;;0.70;0.70;;;7.30;99.90;;;;;;4986789;28;20702;-92
2023/01/30 05:47:22;;;;;;;;;;;7.30;99.90;;;;;;4969837;28;20083;-89
2023/01/30 05:49:51;;;;;;;0.70;0.70;;;7.30;99.90;;;;;;5000438;28;20190;-95
2023/01/30 05:52:36;;;;;;;0.70;0.70;;;7.30;99.90;;;;;;4994316;28;20102;-93
2023/01/30 05:57:52;;;;;;;0.70;0.70;;;7.30;99.90;;;;;;4977705;28;20330;-92
2023/01/30 06:00:21;;;;;;;0.70;0.70;;;7.20;99.90;;;;;;4990634;28;20044;-92
2023/01/30 06:02:52;;;;;;;0.70;0.70;;;7.20;99.90;;;;;;5002323;28;20040;-95
2023/01/30 06:09:01;;;;;;;0.60;0.60;;;6.90;99.90;;;;;;4970254;28;20053;-91
2023/01/30 06:11:27;;;;;;;0.68;0.68;;;6.90;99.90;;;;;;4986808;28;20059;-91
2023/01/30 06:13:53;;;;;;;0.70;0.70;;;6.80;99.90;;;;;;4965732;28;20052;-91
2023/01/30 06:16:20;;;;;;;0.70;0.70;;;6.80;99.90;;;;;;4986092;28;20052;-93
2023/01/30 06:18:46;;;;;;;0.60;0.60;;;6.60;99.90;;;;;;4969974;28;20045;-91
2023/01/30 06:21:38;;;;;;;0.70;0.70;;;6.60;99.90;;;;;;4991819;28;20063;-96
2023/01/30 06:24:30;;;;;;;0.70;0.70;;;6.70;99.90;;;;;;4989800;28;20060;-95
2023/01/30 06:26:58;;;;;;;0.68;0.68;;;6.50;99.90;;;;;;4981752;28;20049;-92
2023/01/30 06:29:28;;;;;;;0.63;0.63;;;6.50;99.90;;;;;;5005145;28;20234;-91
2023/01/30 06:31:54;;;;;;;0.70;0.70;;;6.50;99.90;;;;;;4974756;28;20056;-94
2023/01/30 06:34:22;;;;;;;0.60;0.60;;;6.50;99.90;;;;;;4969753;28;20044;-93
2023/01/30 06:36:48;;;;;;;0.70;0.70;;;6.50;99.90;;;;;;4974405;28;20078;-93
2023/01/30 06:39:14;;;;;;;0.60;0.60;;;6.40;99.90;;;;;;4987600;28;20052;-93
2023/01/30 06:41:47;;;;;;;0.70;0.70;;;6.40;99.90;;;;;;4990929;28;20526;-93
2023/01/30 06:44:22;;;;;;;0.70;0.70;;;6.40;99.90;;;;;;5005401;28;20365;-93
2023/01/30 06:47:04;;;;;;;0.70;0.70;;;6.50;99.90;;;;;;4986170;28;20075;-94
2023/01/30 06:49:34;;;;;;;0.70;0.70;;;6.50;99.90;;;;;;4975998;28;20049;-93
2023/01/30 06:52:08;;;;;;;0.70;0.70;;;6.40;99.90;;;;;;5004539;28;20045;-91
2023/01/30 06:54:36;;;;;;;0.70;0.70;;;6.50;99.90;;;;;;4972685;28;20087;-92
2023/01/30 06:57:03;;;;;;;0.60;0.60;;;6.50;99.90;;;;;;4985038;28;20070;-95
2023/01/30 06:59:39;;;;;;;0.63;0.63;;;6.50;99.90;;;;;;4978561;28;20239;-92
2023/01/30 07:02:31;;;;;;;0.70;0.70;;;6.60;99.90;;;;;;4982337;28;20174;-93
2023/01/30 07:05:02;;;;;;;0.70;0.70;;;6.60;99.90;;;;;;4976539;28;20925;-94
2023/01/30 07:07:32;;;;;;;0.80;0.80;;;6.60;99.90;;;;;;4983029;28;20048;-89
2023/01/30 07:10:00;;;;;;;0.70;0.70;;;6.60;99.90;;;;;;5003072;28;20048;-91
2023/01/30 07:12:47;;;;;;;0.70;0.70;;;6.50;99.90;;;;;;4972803;28;20051;-92
2023/01/30 07:15:13;;;;;;;0.70;0.70;;;6.60;99.90;;;;;;4987879;28;20136;-93
2023/01/30 07:17:42;;;;;;;0.60;0.60;;;6.60;99.90;;;;;;4981957;28;20203;-93
2023/01/30 07:20:15;;;;;;;0.63;0.63;;;6.60;99.90;;;;;;4991231;28;20545;-94
2023/01/30 07:22:41;;;;;;;0.70;0.70;;;6.60;99.90;;;;;;4985737;28;20052;-92
2023/01/30 07:25:10;;;;;;;0.70;0.70;;;6.60;99.90;;;;;;4986174;28;20341;-94
2023/01/30 07:27:35;;;;;;;0.60;0.60;;;6.60;99.90;;;;;;4980701;28;20056;-91
2023/01/30 07:30:01;;;;;;;0.60;0.60;;;6.60;99.90;;;;;;4995749;28;20741;-92
2023/01/30 07:32:36;;;;;;;0.65;0.65;;;6.60;99.90;;;;;;4984866;28;20066;-89
2023/01/30 07:35:02;;;;;;;0.68;0.68;;;6.60;99.90;;;;;;4990995;28;20549;-89
2023/01/30 07:37:37;;;;;;;0.70;0.70;;;6.70;99.90;;;;;;4966372;28;20049;-92
2023/01/30 07:40:04;;;;;;;0.60;0.60;;;6.70;99.90;;;;;;4986604;28;20342;-91
2023/01/30 07:42:30;;;;;;;0.60;0.60;;;6.70;99.90;;;;;;4953828;28;20161;-91
2023/01/30 07:45:05;;;;;;;0.70;0.70;;;6.70;99.90;;;;;;4979594;28;20623;-92
2023/01/30 07:47:31;;;;;;;0.60;0.60;;;6.70;99.90;;;;;;4990332;28;20389;-92
2023/01/30 07:49:57;;;;;;;0.70;0.70;;;6.60;99.90;;;;;;4986862;28;20044;-94
2023/01/30 07:52:22;;;;;;;0.70;0.70;;;6.60;99.90;;;;;;4990098;28;20091;-91
2023/01/30 07:54:51;;;;;;;0.60;0.60;;;6.50;99.90;;;;;;4967688;28;20106;-94
2023/01/30 07:57:17;;;;;;;0.70;0.70;;;6.50;99.90;;;;;;4983067;28;20202;-89
2023/01/30 07:59:52;;;;;;;0.70;0.70;;;6.50;99.90;;;;;;4968524;28;20385;-90
2023/01/30 08:03:14;;;;;;;0.70;0.70;;;6.50;99.90;;;;;;4989564;28;20052;-96
2023/01/30 08:05:43;;;;;;;0.70;0.70;;;6.50;99.90;;;;;;4978408;28;20118;-91
2023/01/30 08:08:08;;;;;;;0.70;0.70;;;6.70;99.90;;;;;;4983715;28;20040;-91
2023/01/30 08:10:34;;;;;;;0.70;0.70;;;6.80;99.90;;;;;;4981923;28;20306;-92
2023/01/30 08:13:03;;;;;;;0.70;0.70;;;6.80;99.90;;;;;;5008064;28;20044;-95
2023/01/30 08:16:08;;;;;;;0.70;0.70;;;6.80;99.90;;;;;;5009105;28;20055;-95
2023/01/30 08:18:55;;;;;;;0.70;0.70;;;6.90;99.90;;;;;;4931165;28;20609;-94
2023/01/30 08:21:21;;;;;;;0.65;0.65;;;7.00;99.90;;;;;;4903325;28;20079;-89
2023/01/30 08:23:56;;;;;;;0.70;0.70;;;6.90;99.90;;;;;;4991151;28;20048;-92
2023/01/30 08:26:25;;;;;;;0.65;0.65;;;6.80;99.90;;;;;;4969577;28;20412;-96
2023/01/30 08:28:51;;;;;;;0.70;0.70;;;6.80;99.90;;;;;;4983724;28;20840;-88
2023/01/30 08:31:19;;;;;;;0.63;0.63;;;6.90;99.90;;;;;;4974083;28;20045;-88
2023/01/30 08:33:46;;;;;;;0.70;0.70;;;6.90;99.90;;;;;;4980250;28;20435;-90
2023/01/30 08:36:15;;;;;;;0.73;0.73;;;6.90;99.90;;;;;;4978565;28;20053;-93
2023/01/30 08:38:40;;;;;;;0.80;0.80;;;6.90;99.90;;;;;;4988590;28;20488;-93
2023/01/30 08:41:07;;;;;;;0.70;0.70;;;6.90;99.90;;;;;;4984999;28;20098;-91
2023/01/30 08:43:45;;;;;;;0.70;0.70;;;6.90;99.90;;;;;;4965893;28;20099;-95
2023/01/30 08:46:11;;;;;;;0.70;0.70;;;6.90;99.90;;;;;;4991556;28;20045;-92
2023/01/30 08:48:42;;;;;;;0.70;0.70;;;7.00;99.90;;;;;;4968371;28;20045;-89
2023/01/30 08:51:07;;;;;;;0.70;0.70;;;7.00;99.90;;;;;;4968218;28;20045;-90
2023/01/30 08:53:36;;;;;;;0.70;0.70;;;7.00;99.90;;;;;;4962142;28;20071;-93
2023/01/30 08:56:11;;;;;;;0.70;0.70;;;7.00;99.90;;;;;;4952023;28;20048;-94
2023/01/30 09:02:11;;;;;;;0.70;0.70;;;7.10;99.90;;;;;;4968899;28;20056;-94
2023/01/30 09:04:37;;;;;;;0.70;0.70;;;7.10;99.90;;;;;;4951355;28;20828;-93
2023/01/30 09:07:06;;;;;;;0.70;0.70;;;7.20;99.90;;;;;;4961192;28;20057;-94
2023/01/30 09:09:32;;;;;;;0.70;0.70;;;7.10;99.90;;;;;;4960293;28;20839;-90
2023/01/30 09:12:01;;;;;;;0.65;0.65;;;7.10;99.90;;;;;;4954590;28;20131;-92
2023/01/30 09:14:57;;;;;;;0.65;0.65;;;7.10;99.90;;;;;;4960186;28;20049;-96
2023/01/30 09:17:43;;;;;;;0.70;0.70;;;7.10;99.90;;;;;;4978204;28;20061;-92
2023/01/30 09:20:19;;;;;;;0.65;0.65;;;7.20;99.90;;;;;;4950502;28;20049;-91
2023/01/30 09:22:45;;;;;;;0.68;0.68;;;7.10;99.90;;;;;;4962016;28;20111;-87
2023/01/30 09:25:29;;;;;;;0.75;0.75;;;7.20;99.90;;;;;;4950876;28;20071;-90
2023/01/30 09:28:01;;;;;;;;;;;7.20;99.90;;;;;;4965154;28;20772;-94
2023/01/30 09:30:29;;;;;;;0.70;0.70;;;7.20;99.90;;;;;;4959530;28;19935;-90
2023/01/30 09:32:58;;;;;;;0.70;0.70;;;7.30;99.90;;;;;;4953799;28;20405;-94
2023/01/30 09:35:24;;;;;;;0.70;0.70;;;7.40;99.90;;;;;;4963678;28;20396;-93
2023/01/30 09:37:52;;;;;;;0.68;0.68;;;7.40;99.90;;;;;;4966785;28;20076;-94
2023/01/30 09:40:25;;;;;;;0.70;0.70;;;7.50;99.90;;;;;;4959795;28;20219;-90
2023/01/30 09:43:13;;;;;;;0.70;0.70;;;7.50;99.90;;;;;;4973741;28;20057;-89
2023/01/30 09:46:11;;;;;;;;;;;7.50;99.90;;;;;;4975982;28;20053;-95
2023/01/30 09:48:53;;;;;;;0.70;0.70;;;7.50;99.90;;;;;;4966540;28;20420;-92
2023/01/30 09:51:43;;;;;;;0.70;0.70;;;7.50;99.90;;;;;;4993182;28;20049;-93
2023/01/30 09:54:32;;;;;;;0.70;0.70;;;7.50;99.90;;;;;;4974177;28;20052;-92
2023/01/30 09:57:08;;;;;;;0.70;0.70;;;7.60;99.90;;;;;;4983739;28;20044;-91
2023/01/30 10:00:14;;;;;;;0.60;0.60;;;7.70;99.90;;;;;;4978360;28;20520;-93
2023/01/30 10:03:10;;;;;;;0.65;0.65;;;7.80;99.90;;;;;;4966452;28;20392;-92
2023/01/30 10:05:46;;;;;;;0.70;0.70;;;8.00;99.90;;;;;;5001678;28;20468;-92
2023/01/30 10:08:42;;;;;;;0.70;0.70;;;8.00;99.90;;;;;;4977009;28;20048;-90
2023/01/30 10:11:46;;;;;;;0.70;0.70;;;8.10;99.90;;;;;;4988475;28;20132;-90
2023/01/30 10:14:31;;;;;;;;;;;8.00;99.90;;;;;;4983284;28;20575;-91
2023/01/30 10:17:33;;;;;;;0.70;0.70;;;8.00;99.90;;;;;;5008254;28;19924;-92
2023/01/30 10:20:33;;;;;;;;;;;;;;;;;;;;;
2023/01/30 10:23:33;;;;;;;0.70;0.70;;;7.90;99.90;;;;;;5009387;28;20447;-94
2023/01/30 10:26:20;;;;;;;0.68;0.68;;;8.00;99.90;;;;;;4984148;28;20533;-95
2023/01/30 10:29:10;;;;;;;0.70;0.70;;;8.00;99.90;;;;;;4981647;28;20052;-92
2023/01/30 10:32:06;;;;;;;0.70;0.70;;;8.10;99.90;;;;;;4993373;28;20133;-92
2023/01/30 10:34:39;;;;;;;0.68;0.68;;;8.10;99.90;;;;;;4990815;28;20211;-90
2023/01/30 10:37:30;;;;;;;0.70;0.70;;;8.20;99.90;;;;;;5005904;28;20052;-90
2023/01/30 10:40:38;;;;;;;0.70;0.70;;;8.40;99.90;;;;;;4971522;28;20573;-91
2023/01/30 10:43:29;;;;;;;0.70;0.70;;;8.30;99.90;;;;;;4975110;28;20053;-91
2023/01/30 10:46:34;;;;;;;0.70;0.70;;;8.40;99.90;;;;;;4973620;28;20045;-90
2023/01/30 10:49:06;;;;;;;0.68;0.68;;;8.40;99.90;;;;;;4981712;28;20056;-91
2023/01/30 10:52:05;;;;;;;0.70;0.70;;;8.40;99.90;;;;;;4984398;28;20415;-96
2023/01/30 10:54:59;;;;;;;0.70;0.70;;;8.30;99.90;;;;;;4982499;28;20044;-89
2023/01/30 10:57:46;;;;;;;0.70;0.70;;;8.30;99.90;;;;;;4968119;28;20060;-95
2023/01/30 11:00:40;;;;;;;0.70;0.70;;;8.30;99.90;;;;;;4956567;28;20049;-93
2023/01/30 11:03:37;;;;;;;0.70;0.70;;;8.30;99.90;;;;;;4967282;28;20053;-92
2023/01/30 11:06:25;;;;;;;0.70;0.70;;;8.30;99.90;;;;;;4964739;28;20308;-92
2023/01/30 11:09:11;;;;;;;0.70;0.70;;;8.40;99.90;;;;;;4966298;28;20217;-94
2023/01/30 11:11:50;;;;;;;0.60;0.60;;;8.40;99.90;;;;;;4969596;28;20037;-91
2023/01/30 11:14:57;;;;;;;0.70;0.70;;;8.40;99.90;;;;;;4969634;28;20445;-94
2023/01/30 11:17:37;;;;;;;0.70;0.70;;;8.40;99.90;;;;;;4967500;28;20415;-90
2023/01/30 11:20:10;;;;;;;0.70;0.70;;;8.50;99.90;;;;;;4962742;28;20444;-92
2023/01/30 11:23:06;;;;;;;0.70;0.70;;;8.60;99.90;;;;;;4979531;28;20345;-95
2023/01/30 11:25:50;;;;;;;0.70;0.70;;;8.80;99.90;;;;;;4970202;28;20162;-90
2023/01/30 11:28:18;;;;;;;0.70;0.70;;;8.70;99.90;;;;;;4982297;28;20419;-89
2023/01/30 11:34:16;;;;;;;0.60;0.60;;;9.00;99.90;;;;;;4984032;28;20053;-92
2023/01/30 11:36:42;;;;;;;0.60;0.60;;;8.90;99.90;;;;;;4967597;28;20122;-91
2023/01/30 11:39:16;;;;;;;0.70;0.70;;;8.60;99.90;;;;;;4973358;28;20041;-90
2023/01/30 11:42:00;;;;;;;0.68;0.68;;;8.40;99.90;;;;;;4969590;28;20080;-92
2023/01/30 11:44:40;;;;;;;0.60;0.60;;;8.80;99.90;;;;;;5005065;28;20091;-90
2023/01/30 11:47:23;;;;;;;0.70;0.70;;;9.10;99.90;;;;;;4993094;28;20140;-95
2023/01/30 11:49:53;;;;;;;0.63;0.63;;;8.80;99.90;;;;;;4989440;28;20279;-91
2023/01/30 11:52:27;;;;;;;0.70;0.70;;;8.60;99.90;;;;;;4975746;28;20109;-92
2023/01/30 11:55:07;;;;;;;0.70;0.70;;;8.50;99.90;;;;;;4990125;28;20086;-89
2023/01/30 11:58:28;;;;;;;0.80;0.80;;;8.50;99.90;;;;;;4981021;28;20075;-93
2023/01/30 12:01:04;;;;;;;0.70;0.70;;;8.60;99.90;;;;;;5014449;28;20048;-91
2023/01/30 12:03:55;;;;;;;0.70;0.70;;;8.60;99.90;;;;;;4990089;28;20052;-96
2023/01/30 12:06:23;;;;;;;0.70;0.70;;;8.60;99.90;;;;;;4989672;28;20053;-90
2023/01/30 12:09:01;;;;;;;0.70;0.70;;;8.90;99.90;;;;;;4985543;28;20171;-91
2023/01/30 12:11:57;;;;;;;0.70;0.70;;;9.10;99.90;;;;;;5007735;28;20047;-92
2023/01/30 12:14:48;;;;;;;0.70;0.70;;;8.80;99.90;;;;;;4962274;28;20103;-89
2023/01/30 12:17:36;;;;;;;0.70;0.70;;;8.50;99.90;;;;;;4977083;28;20048;-95
2023/01/30 12:20:29;;;;;;;0.70;0.70;;;8.10;99.90;;;;;;4993905;28;20167;-93
2023/01/30 12:23:10;;;;;;;0.70;0.70;;;8.10;99.90;;;;;;5006411;28;20041;-92
2023/01/30 12:26:05;;;;;;;0.70;0.70;;;7.90;99.90;;;;;;5007171;28;20045;-89
2023/01/30 12:29:26;;;;;;;;;;;;;;;;;;;;;
2023/01/30 12:31:52;;;;;;;0.70;0.70;;;7.70;99.90;;;;;;5003561;28;20048;-91
2023/01/30 12:34:18;;;;;;;0.80;0.80;;;7.60;99.90;;;;;;4983852;28;20582;-91
2023/01/30 12:37:10;;;;;;;0.70;0.70;;;7.50;99.90;;;;;;4976357;28;20071;-88
2023/01/30 12:40:03;;;;;;;0.70;0.70;;;7.30;99.90;;;;;;4983177;28;20060;-91
2023/01/30 12:43:03;;;;;;;0.68;0.68;;;7.40;99.90;;;;;;4988919;28;20055;-92
2023/01/30 12:45:53;;;;;;;0.70;0.70;;;7.90;99.90;;;;;;4997917;28;20142;-89
2023/01/30 12:48:53;;;;;;;0.70;0.70;;;8.20;99.90;;;;;;4985358;28;20072;-94
2023/01/30 12:51:37;;;;;;;0.70;0.70;;;8.20;99.90;;;;;;4993854;28;20101;-93
2023/01/30 12:55:17;;;;;;;0.70;0.70;;;8.20;99.90;;;;;;4989434;28;20067;-95
2023/01/30 12:58:48;;;;;;;0.77;0.77;;;8.20;99.90;;;;;;5015442;28;20054;-95
2023/01/30 13:01:32;;;;;;;0.70;0.70;;;8.20;99.90;;;;;;4983879;28;20529;-92
2023/01/30 13:04:44;;;;;;;0.70;0.70;;;8.30;99.90;;;;;;4993977;28;20047;-95
2023/01/30 13:07:34;;;;;;;0.70;0.70;;;8.60;99.90;;;;;;4885414;28;20222;-89
2023/01/30 13:10:03;;;;;;;0.70;0.70;;;8.60;99.90;;;;;;4906354;28;20073;-91
2023/01/30 13:12:56;;;;;;;0.70;0.70;;;8.70;99.90;;;;;;4976720;28;20900;-91
2023/01/30 13:15:37;;;;;;;0.70;0.70;;;8.60;99.90;;;;;;4993216;28;20052;-93
2023/01/30 13:18:28;;;;;;;0.73;0.73;;;8.60;99.90;;;;;;4980708;28;20855;-93
2023/01/30 13:24:57;;;;;;;0.70;0.70;;;8.40;99.90;;;;;;5007631;28;20067;-96
2023/01/30 13:27:24;;;;;;;0.70;0.70;;;8.60;99.90;;;;;;4991402;28;20044;-90
2023/01/30 13:29:54;;;;;;;0.70;0.70;;;8.70;99.90;;;;;;4988239;28;20040;-91
2023/01/30 13:32:48;;;;;;;0.80;0.80;;;8.90;99.90;;;;;;4964231;28;20068;-91
2023/01/30 13:35:34;;;;;;;0.80;0.80;;;8.90;99.90;;;;;;4953057;28;20131;-90
2023/01/30 13:38:19;;;;;;;0.80;0.80;;;9.10;99.90;;;;;;4979784;28;20118;-94
2023/01/30 13:40:49;;;;;;;0.70;0.70;;;9.20;99.90;;;;;;4979397;28;20041;-89
2023/01/30 13:43:43;;;;;;;0.70;0.70;;;9.20;99.90;;;;;;5001645;28;20056;-89
2023/01/30 13:46:26;;;;;;;0.70;0.70;;;9.10;99.90;;;;;;4989078;28;20631;-94
2023/01/30 13:49:26;;;;;;;0.65;0.65;;;9.10;99.90;;;;;;4984674;28;20143;-91
2023/01/30 13:52:37;;;;;;;0.70;0.70;;;9.00;99.90;;;;;;4983605;28;20075;-92
2023/01/30 13:55:17;;;;;;;0.75;0.75;;;9.10;99.90;;;;;;5005601;28;20052;-95
2023/01/30 13:57:53;;;;;;;0.70;0.70;;;9.00;99.90;;;;;;4989875;28;20148;-93
2023/01/30 14:00:39;;;;;;;0.80;0.80;;;8.90;99.90;;;;;;4983746;28;20044;-88
2023/01/30 14:03:34;;;;;;;0.70;0.70;;;8.90;99.90;;;;;;4992859;28;20048;-92
2023/01/30 14:06:22;;;;;;;0.70;0.70;;;8.80;99.90;;;;;;4910916;28;20070;-92
2023/01/30 14:08:57;;;;;;;0.70;0.70;;;8.80;99.90;;;;;;4904390;28;20046;-89
2023/01/30 14:11:43;;;;;;;0.70;0.70;;;8.80;99.90;;;;;;5006155;28;20047;-91
2023/01/30 14:14:18;;;;;;;0.80;0.80;;;8.70;99.90;;;;;;4994330;28;20693;-94
2023/01/30 14:16:56;;;;;;;0.70;0.70;;;8.70;99.90;;;;;;4992765;28;20045;-87
2023/01/30 14:19:43;;;;;;;0.70;0.70;;;8.60;99.90;;;;;;5007569;28;20040;-91
2023/01/30 14:22:44;;;;;;;0.70;0.70;;;8.60;99.90;;;;;;4985661;28;20037;-93
2023/01/30 14:25:40;;;;;;;0.75;0.75;;;8.60;99.90;;;;;;4948590;28;20251;-89
2023/01/30 14:28:06;;;;;;;0.70;0.70;;;8.60;99.90;;;;;;4998422;28;20586;-93
2023/01/30 14:31:39;;;;;;;0.70;0.70;;;8.50;99.90;;;;;;4990826;28;20119;-95
2023/01/30 14:34:47;;;;;;;0.80;0.80;;;8.50;99.90;;;;;;4971045;28;20264;-90
2023/01/30 14:37:37;;;;;;;0.70;0.70;;;8.50;99.90;;;;;;4980515;28;20084;-87
2023/01/30 14:40:26;;;;;;;0.70;0.70;;;8.60;99.90;;;;;;4993202;28;20045;-91
2023/01/30 14:43:11;;;;;;;0.70;0.70;;;8.60;99.90;;;;;;4978968;28;20049;-88
2023/01/30 14:46:04;;;;;;;0.80;0.80;;;8.60;99.90;;;;;;4989446;28;20075;-91
2023/01/30 14:48:44;;;;;;;0.80;0.80;;;8.80;99.90;;;;;;5022755;28;20059;-88
2023/01/30 14:51:28;;;;;;;0.70;0.70;;;8.80;99.90;;;;;;4992731;28;20142;-95